Orsk Airport
UWOR : rendu visible

Aérodrome :











RETROUVEZ-NOUS SUR...

 
LOGIN :

S'inscrire | Disclaimer

   EN    FR    IT 

 









Légende :    VFR   VFR Marginal   IFR   IFR Intensif   IFR Très Intensif
Visi : 
Plafond : 
>= 8 km
>= 3000ft
5 à 8 km
1000 à 3000 ft
1500m à 5 km
500 à 1000 ft
800 à 1500m
200 à 500 ft
< 800m
< 200 ft
Symboles :   Orages  Brouillard  Fortes neiges  Fortes précipitations  Vent > 20 kt






- Altitude de l'aérodrome : 909 ft
- Code IATA : OSW


UWOR - Orsk

DERNIER METAR :
  • 040200Z 06004MPS 9999 BKN048 03/02 Q1011 R07/CLRD65 NOSIG RMK QFE734/0978

METARs EXPIRÉS :
  • 040100Z 06004MPS 9999 OVC043 04/02 Q1011 R07/CLRD65 NOSIG RMK QFE734/0978
  • 040000Z 02002MPS 9999 OVC040 03/02 Q1012 R07/CLRD65 NOSIG RMK QFE734/0979

TAF TAF UWOR
Valide du 04 à 03h jusqu'au 04 à 12h UTC


040159Z 0403/0412 10005G13MPS 6000 -RA FEW005 BKN016 TX07/0408Z TN02/0403Z
TEMPO 0403/0407 05006G12MPS
TEMPO 0407/0412 22006G12MPS



MET'MAP, la Météo Aéronautique d'un coup d'oeil ! - Copyright ORBIFLY Décembre 2007 - Disclaimer

ORBIFLY MET'MAP TEAM :

Programmation & Développement : Alexandra Zaïnal
Sur une idée originale de : Baudouin d'Aumeries
Assistance à la programmation : Marc-Olivier Méhu
Soutien technique & logistique : Manuel Goepfert

Contact : metmap@orbifly.com




SOURCES & CREDITS :

   NOAA       Earth
Advisory